Rockton Airport

CPT3 · Ontario, Canada

METAR history CPT3 · Rockton Airport

Below you see METARs of the last few days. Select a year to browse through older METARs, from the year 2007 onwards.

December 9, 2022

Time Code Weather Temp. Visibility Ceiling Wind METAR/SPECI
04:00
M
-2 °C 9 mi 1,300 ft 020° 020° 7 kt METAR CYKF 090900Z AUTO 02007KT 9SM OVC013 M02/M05 A3037 RMK SLP298
03:00
M
-3 °C 9 mi 1,300 ft 020° 020° 7 kt METAR CYKF 090800Z AUTO 02007KT 9SM OVC013 M03/M05 A3037 RMK SLP300
02:00
M
-3 °C 9 mi 1,300 ft 010° 010° 5 kt METAR CYKF 090700Z AUTO 01005KT 360V060 9SM OVC013 M03/M06 A3037 RMK SLP298
01:00
M
-3 °C 9 mi 1,300 ft 010° 010° 4 kt METAR CYKF 090600Z AUTO 01004KT 350V070 9SM OVC013 M03/M06 A3036 RMK SLP297
00:00
M
-3 °C 9 mi 1,300 ft 360° 360° 5 kt METAR CYKF 090500Z AUTO 36005KT 9SM OVC013 M03/M05 A3037 RMK SLP300

December 8, 2022

Time Code Weather Temp. Visibility Ceiling Wind METAR/SPECI
23:00
M
-3 °C 9 mi 1,500 ft 030° 030° 8 kt METAR CYKF 090400Z AUTO 03008KT 9SM OVC015 M03/M05 A3037 RMK SLP299
22:40
M
-3 °C 9 mi 1,700 ft 360° 360° 6 kt METAR CYKF 090340Z AUTO 36006KT 9SM BKN017 M03/M05 A3037 RMK SLP301
22:00
V
-3 °C 9 mi - 020° 020° 4 kt METAR CYKF 090300Z AUTO 02004KT 9SM CLR M03/M05 A3037 RMK SLP298
21:00
V
-2 °C 9 mi - 360° 360° 5 kt METAR CYKF 090200Z AUTO 36005KT 9SM CLR M02/M05 A3036 RMK SLP297
20:00
V
-2 °C 9 mi - 310° 310° 5 kt METAR CYKF 090100Z AUTO 31005KT 9SM CLR M02/M05 A3036 RMK SLP296
19:00
V
-1 °C 9 mi - 320° 320° 7 kt METAR CYKF 090000Z AUTO 32007KT 9SM SCT030 M01/M05 A3036 RMK SLP294
18:00
M
0 °C 9 mi 2,800 ft 300° 300° 6 kt METAR CYKF 082300Z AUTO 30006KT 9SM OVC028 00/M04 A3036 RMK SLP296
17:00
M
1 °C 9 mi 2,800 ft 350° 350° 6 kt METAR CYKF 082200Z AUTO 35006KT 9SM OVC028 01/M04 A3034 RMK SLP287
16:00
M
2 °C 9 mi 2,800 ft 350° 350° 7 kt METAR CYKF 082100Z AUTO 35007KT 9SM OVC028 02/M03 A3033 RMK SLP283
15:00
V
3 °C 9 mi 3,000 ft 320° 320° 7 kt METAR CYKF 082000Z AUTO 32007KT 280V350 9SM OVC030 03/M04 A3031 RMK SLP277
14:00
V
3 °C 9 mi 3,200 ft 330° 330° 8 kt METAR CYKF 081900Z AUTO 33008KT 9SM OVC032 03/M04 A3031 RMK SLP276
13:00
V
3 °C 9 mi 3,600 ft 330° 330° 7 kt METAR CYKF 081800Z AUTO 33007KT 310V020 9SM FEW024 OVC036 03/M03 A3032 RMK SLP280
12:00
V
3 °C 9 mi 3,400 ft 350° 350° 8 kt METAR CYKF 081700Z AUTO 35008KT 9SM FEW018 OVC034 03/M02 A3034 RMK SLP286
11:49
V
2 °C 9 mi 3,200 ft 350° 350° 8 kt METAR CYKF 081649Z AUTO 35008KT 9SM SCT018 SCT026 OVC032 02/M02 A3034 RMK SLP288
11:21
M
3 °C 9 mi 2,200 ft 320° 320° 10 kt METAR CYKF 081621Z AUTO 32010KT 9SM SCT017 BKN022 OVC035 03/M01 A3035 RMK SLP290
11:00
V
3 °C 9 mi 3,700 ft 350° 350° 6 kt METAR CYKF 081600Z AUTO 35006KT 9SM OVC037 03/M01 A3036 RMK SLP292
10:00
V
3 °C 9 mi 3,900 ft 330° 330° 7 kt METAR CYKF 081500Z AUTO 33007KT 9SM OVC039 03/00 A3034 RMK SLP288
09:00
V
2 °C 9 mi 4,300 ft 330° 330° 6 kt METAR CYKF 081400Z AUTO 33006KT 9SM OVC043 02/00 A3033 RMK SLP282
08:00
V
2 °C 9 mi 4,500 ft 350° 350° 4 kt METAR CYKF 081300Z AUTO 35004KT 9SM FEW013 OVC045 02/01 A3032 RMK SLP281
07:00
V
2 °C 9 mi 4,700 ft 290° 290° 4 kt METAR CYKF 081200Z AUTO 29004KT 9SM FEW017 OVC047 02/01 A3032 RMK SLP279
06:00
V
2 °C 9 mi 4,300 ft 290° 290° 4 kt METAR CYKF 081100Z AUTO 29004KT 9SM OVC043 02/01 A3030 RMK SLP274
05:08
M
2 °C 9 mi 2,500 ft 290° 290° 4 kt METAR CYKF 081008Z AUTO 29004KT 9SM FEW013 BKN025 BKN032 OVC043 02/01 A3030 RMK SLP274
04:59
M
2 °C 9 mi 2,300 ft 300° 300° 5 kt METAR CYKF 080959Z AUTO 30005KT 9SM SCT013 BKN023 OVC043 02/01 A3030 RMK SLP273
04:49
M
3 °C 5 mi 1,300 ft 310° 310° 6 kt SPECI CYKF 080949Z AUTO 31006KT 5SM -RA BR BKN013 BKN026 OVC043 03/01 A3030 RMK SLP273
04:44
M
3 °C 7 mi 1,300 ft 320° 320° 7 kt METAR CYKF 080944Z AUTO 32007KT 7SM -RA BKN013 BKN020 OVC026 03/01 A3030 RMK SLP274
04:16
M
3 °C 9 mi 1,500 ft 300° 300° 5 kt METAR CYKF 080916Z AUTO 30005KT 9SM BKN015 OVC039 03/01 A3029 RMK SLP271
04:00
V
3 °C 9 mi 3,900 ft 310° 310° 5 kt METAR CYKF 080900Z AUTO 31005KT 9SM OVC039 03/01 A3029 RMK SLP268
03:00
V
3 °C 9 mi 4,300 ft 300° 300° 5 kt METAR CYKF 080800Z AUTO 30005KT 9SM FEW013 OVC043 03/02 A3029 RMK SLP268
02:00
V
4 °C 9 mi 4,100 ft 290° 290° 9 kt METAR CYKF 080700Z AUTO 29009KT 9SM OVC041 04/02 A3029 RMK SLP267
01:00
V
4 °C 9 mi 3,900 ft 310° 310° 5 kt METAR CYKF 080600Z AUTO 31005KT 9SM OVC039 04/02 A3027 RMK SLP263
00:00
V
3 °C 7 mi 3,900 ft 240° 240° 4 kt METAR CYKF 080500Z AUTO 24004KT 7SM SCT009 OVC039 03/03 A3027 RMK SLP260

December 7, 2022

Time Code Weather Temp. Visibility Ceiling Wind METAR/SPECI
23:44
I
3 °C 7 mi 900 ft 260° 260° 4 kt METAR CYKF 080444Z AUTO 26004KT 7SM BKN009 BKN014 OVC039 03/02 A3026 RMK SLP260
23:39
M
3 °C 6 mi 1,200 ft 250° 250° 4 kt METAR CYKF 080439Z AUTO 25004KT 230V290 6SM BR FEW007 BKN012 OVC039 03/02 A3026 RMK SLP259
23:04
M
4 °C 5 mi 1,200 ft 290° 290° 6 kt METAR CYKF 080404Z AUTO 29006KT 5SM BR BKN012 OVC019 04/02 A3027 RMK SLP261
22:23
M
4 °C 9 mi 2,300 ft 290° 290° 7 kt METAR CYKF 080323Z AUTO 29007KT 9SM BKN023 OVC028 04/02 A3027 RMK SLP262
22:00
M
4 °C 9 mi 2,500 ft 280° 280° 6 kt METAR CYKF 080300Z AUTO 28006KT 9SM OVC025 04/02 A3027 RMK SLP262
21:00
M
5 °C 9 mi 1,200 ft 280° 280° 9 kt METAR CYKF 080200Z AUTO 28009KT 9SM BKN012 OVC023 05/03 A3027 RMK SLP260
20:00
M
5 °C 8 mi 2,000 ft 290° 290° 9 kt METAR CYKF 080100Z AUTO 29009KT 8SM SCT006 OVC020 05/04 A3024 RMK SLP253
19:55
M
5 °C 7 mi 2,000 ft 290° 290° 9 kt METAR CYKF 080055Z AUTO 29009KT 7SM SCT006 OVC020 05/04 A3025 RMK SLP254
19:42
I
5 °C 2¼ mi 900 ft 300° 300° 9 kt METAR CYKF 080042Z AUTO 30009KT 2 1/4SM BR OVC009 05/04 A3024 RMK SLP252
19:18
I
5 °C 5 mi 900 ft 300° 300° 8 kt METAR CYKF 080018Z AUTO 30008KT 5SM BR OVC009 05/04 A3023 RMK SLP248
19:00
I
6 °C 9 mi 900 ft 310° 310° 9 kt METAR CYKF 080000Z AUTO 31009KT 9SM OVC009 06/04 A3023 RMK SLP246
18:34
I
6 °C 9 mi 900 ft 290° 290° 10 kt METAR CYKF 072334Z AUTO 29010KT 9SM OVC009 06/04 A3022 RMK SLP242
18:00
M
6 °C 9 mi 1,100 ft 290° 290° 6 kt METAR CYKF 072300Z AUTO 29006KT 9SM OVC011 06/04 A3020 RMK SLP238
17:00
M
6 °C 9 mi 1,100 ft 300° 300° 5 kt METAR CYKF 072200Z AUTO 30005KT 9SM OVC011 06/04 A3018 RMK SLP230
16:00
M
7 °C 9 mi 1,300 ft 290° 290° 9 kt METAR CYKF 072100Z AUTO 29009KT 9SM OVC013 07/04 A3016 RMK SLP223
15:00
M
7 °C 9 mi 1,300 ft 290° 290° 7 kt METAR CYKF 072000Z AUTO 29007KT 9SM BKN013 BKN037 OVC046 07/04 A3014 RMK SLP218
14:34
M
7 °C 9 mi 1,300 ft 300° 300° 4 kt METAR CYKF 071934Z AUTO 30004KT 9SM BKN013 BKN039 OVC046 07/04 A3014 RMK SLP214
14:00
V
7 °C 9 mi 4,600 ft Var Var 3 kt METAR CYKF 071900Z AUTO VRB03KT 9SM FEW013 BKN046 OVC081 07/04 A3013 RMK SLP212
13:00
V
7 °C 9 mi 4,600 ft 270° 270° 3 kt METAR CYKF 071800Z AUTO 27003KT 210V320 9SM OVC046 07/04 A3013 RMK SLP215
12:00
M
6 °C 9 mi 2,700 ft 360° 360° 4 kt METAR CYKF 071700Z AUTO 36004KT 9SM FEW010 OVC027 06/04 A3014 RMK SLP216
11:00
V
5 °C 9 mi 4,400 ft 360° 360° 2 kt METAR CYKF 071600Z AUTO 36002KT 9SM FEW008 SCT033 OVC044 05/04 A3013 RMK SLP215
10:41
V
6 °C 9 mi 3,300 ft 360° 360° 5 kt METAR CYKF 071541Z AUTO 36005KT 9SM SCT008 SCT024 BKN033 OVC042 06/04 A3014 RMK SLP216
10:06
I
5 °C 9 mi 800 ft 350° 350° 7 kt METAR CYKF 071506Z AUTO 35007KT 9SM BKN008 BKN021 OVC040 05/04 A3013 RMK SLP215
10:00
M
5 °C 9 mi 1,900 ft 360° 360° 6 kt METAR CYKF 071500Z AUTO 36006KT 9SM SCT006 BKN019 OVC040 05/04 A3013 RMK SLP214
09:51
M
5 °C 8 mi 1,900 ft 350° 350° 7 kt SPECI CYKF 071451Z AUTO 35007KT 8SM FEW006 BKN019 OVC040 05/04 A3013 RMK SLP214
09:40
V
5 °C 6 mi 4,000 ft 010° 010° 4 kt METAR CYKF 071440Z AUTO 01004KT 6SM BR FEW006 SCT019 OVC040 05/04 A3012 RMK SLP210
09:03
I
4 °C 3 mi 1,300 ft 350° 350° 5 kt METAR CYKF 071403Z AUTO 35005KT 3SM BR FEW004 OVC013 04/04 A3012 RMK SLP211
09:00
I
4 °C 2½ mi 1,300 ft 350° 350° 7 kt METAR CYKF 071400Z AUTO 35007KT 2 1/2SM BR FEW004 OVC013 04/04 A3012 RMK SLP212
08:50
I
4 °C 2 mi 1,300 ft 340° 340° 5 kt SPECI CYKF 071350Z AUTO 34005KT 2SM BR SCT004 OVC013 04/04 A3013 RMK SLP213
08:00
L
4 °C ¾ mi 200 ft 320° 320° 6 kt METAR CYKF 071300Z AUTO 32006KT 3/4SM BR OVC002 04/04 A3011 RMK SLP209
07:00
L
4 °C 1 mi 400 ft 330° 330° 4 kt METAR CYKF 071200Z AUTO 33004KT 1SM BR OVC004 04/03 A3009 RMK SLP202
06:00
L
4 °C 1½ mi 400 ft 350° 350° 3 kt METAR CYKF 071100Z AUTO 35003KT 1 1/2SM BR OVC004 04/03 A3008 RMK SLP197
05:54
L
4 °C 1¾ mi 400 ft 350° 350° 3 kt METAR CYKF 071054Z AUTO 35003KT 1 3/4SM BR OVC004 04/03 A3008 RMK SLP197
05:00
I
4 °C 1¾ mi 800 ft 350° 350° 4 kt METAR CYKF 071000Z AUTO 35004KT 1 3/4SM BR OVC008 04/03 A3007 RMK SLP195

We and third parties follow your internet behavior on our website with cookies. If you continue, we assume you agree with our cookie policy.